sensor_id;sensor_type;location;lat;lon;timestamp;pressure;altitude;pressure_sealevel;temperature
25514;BMP180;48128;54.242;10.280;2022-08-19T00:01:36;100832.00;;;18.90
25514;BMP180;48128;54.242;10.280;2022-08-19T00:04:06;100829.00;;;18.90
25514;BMP180;48128;54.242;10.280;2022-08-19T00:06:34;100826.00;;;18.90
25514;BMP180;48128;54.242;10.280;2022-08-19T00:09:03;100817.00;;;18.90
25514;BMP180;48128;54.242;10.280;2022-08-19T00:11:30;100824.00;;;18.90
25514;BMP180;48128;54.242;10.280;2022-08-19T00:13:57;100820.00;;;18.90
25514;BMP180;48128;54.242;10.280;2022-08-19T00:16:25;100819.00;;;18.90
25514;BMP180;48128;54.242;10.280;2022-08-19T00:18:56;100822.00;;;18.90
25514;BMP180;48128;54.242;10.280;2022-08-19T00:21:24;100826.00;;;18.90
25514;BMP180;48128;54.242;10.280;2022-08-19T00:23:54;100818.00;;;18.90
25514;BMP180;48128;54.242;10.280;2022-08-19T00:26:21;100813.00;;;18.90
25514;BMP180;48128;54.242;10.280;2022-08-19T00:28:47;100804.00;;;18.90
25514;BMP180;48128;54.242;10.280;2022-08-19T00:31:14;100799.00;;;18.80
25514;BMP180;48128;54.242;10.280;2022-08-19T00:33:42;100799.00;;;18.80
25514;BMP180;48128;54.242;10.280;2022-08-19T00:36:10;100797.00;;;18.80
25514;BMP180;48128;54.242;10.280;2022-08-19T00:38:38;100796.00;;;18.80
25514;BMP180;48128;54.242;10.280;2022-08-19T00:41:07;100792.00;;;18.80
25514;BMP180;48128;54.242;10.280;2022-08-19T00:43:35;100789.00;;;18.80
25514;BMP180;48128;54.242;10.280;2022-08-19T00:46:02;100791.00;;;18.80
25514;BMP180;48128;54.242;10.280;2022-08-19T00:48:32;100792.00;;;18.70
25514;BMP180;48128;54.242;10.280;2022-08-19T00:51:00;100797.00;;;18.70
25514;BMP180;48128;54.242;10.280;2022-08-19T00:53:29;100789.00;;;18.70
25514;BMP180;48128;54.242;10.280;2022-08-19T00:55:59;100771.00;;;18.70
25514;BMP180;48128;54.242;10.280;2022-08-19T00:58:30;100789.00;;;18.70
25514;BMP180;48128;54.242;10.280;2022-08-19T01:00:57;100784.00;;;18.60
25514;BMP180;48128;54.242;10.280;2022-08-19T01:03:24;100774.00;;;18.60
25514;BMP180;48128;54.242;10.280;2022-08-19T01:05:51;100778.00;;;18.60
25514;BMP180;48128;54.242;10.280;2022-08-19T01:08:21;100773.00;;;18.60
25514;BMP180;48128;54.242;10.280;2022-08-19T01:10:50;100778.00;;;18.60
25514;BMP180;48128;54.242;10.280;2022-08-19T01:13:20;100776.00;;;18.60
25514;BMP180;48128;54.242;10.280;2022-08-19T01:15:57;100771.00;;;18.60
25514;BMP180;48128;54.242;10.280;2022-08-19T01:18:25;100766.00;;;18.60
25514;BMP180;48128;54.242;10.280;2022-08-19T01:20:55;100760.00;;;18.60
25514;BMP180;48128;54.242;10.280;2022-08-19T01:23:24;100758.00;;;18.60
25514;BMP180;48128;54.242;10.280;2022-08-19T01:26:15;100741.00;;;18.60
25514;BMP180;48128;54.242;10.280;2022-08-19T01:28:43;100745.00;;;18.60
25514;BMP180;48128;54.242;10.280;2022-08-19T01:31:15;100740.00;;;18.50
25514;BMP180;48128;54.242;10.280;2022-08-19T01:33:55;100743.00;;;18.50
25514;BMP180;48128;54.242;10.280;2022-08-19T01:36:30;100752.00;;;18.50
25514;BMP180;48128;54.242;10.280;2022-08-19T01:38:58;100749.00;;;18.50
25514;BMP180;48128;54.242;10.280;2022-08-19T01:41:26;100746.00;;;18.50
25514;BMP180;48128;54.242;10.280;2022-08-19T01:43:53;100744.00;;;18.40
25514;BMP180;48128;54.242;10.280;2022-08-19T01:46:41;100737.00;;;18.40
25514;BMP180;48128;54.242;10.280;2022-08-19T01:49:08;100733.00;;;18.40
25514;BMP180;48128;54.242;10.280;2022-08-19T01:51:37;100730.00;;;18.40
25514;BMP180;48128;54.242;10.280;2022-08-19T01:54:07;100721.00;;;18.40
25514;BMP180;48128;54.242;10.280;2022-08-19T01:56:35;100723.00;;;18.40
25514;BMP180;48128;54.242;10.280;2022-08-19T01:59:05;100725.00;;;18.40
25514;BMP180;48128;54.242;10.280;2022-08-19T02:01:34;100720.00;;;18.40
25514;BMP180;48128;54.242;10.280;2022-08-19T02:04:02;100730.00;;;18.40
25514;BMP180;48128;54.242;10.280;2022-08-19T02:06:29;100726.00;;;18.40
25514;BMP180;48128;54.242;10.280;2022-08-19T02:08:56;100726.00;;;18.40
25514;BMP180;48128;54.242;10.280;2022-08-19T02:11:26;100707.00;;;18.40
25514;BMP180;48128;54.242;10.280;2022-08-19T02:13:54;100716.00;;;18.40
25514;BMP180;48128;54.242;10.280;2022-08-19T02:16:21;100704.00;;;18.40
25514;BMP180;48128;54.242;10.280;2022-08-19T02:18:49;100694.00;;;18.40
25514;BMP180;48128;54.242;10.280;2022-08-19T02:21:18;100692.00;;;18.40
25514;BMP180;48128;54.242;10.280;2022-08-19T02:23:45;100696.00;;;18.40
25514;BMP180;48128;54.242;10.280;2022-08-19T02:26:12;100693.00;;;18.40
25514;BMP180;48128;54.242;10.280;2022-08-19T02:28:41;100693.00;;;18.40
25514;BMP180;48128;54.242;10.280;2022-08-19T02:31:15;100688.00;;;18.40
25514;BMP180;48128;54.242;10.280;2022-08-19T02:33:44;100708.00;;;18.40
25514;BMP180;48128;54.242;10.280;2022-08-19T02:36:12;100712.00;;;18.40
25514;BMP180;48128;54.242;10.280;2022-08-19T02:38:41;100712.00;;;18.40
25514;BMP180;48128;54.242;10.280;2022-08-19T02:41:32;100705.00;;;18.40
25514;BMP180;48128;54.242;10.280;2022-08-19T02:44:00;100704.00;;;18.30
25514;BMP180;48128;54.242;10.280;2022-08-19T02:46:48;100698.00;;;18.30
25514;BMP180;48128;54.242;10.280;2022-08-19T02:49:19;100706.00;;;18.30
25514;BMP180;48128;54.242;10.280;2022-08-19T02:51:46;100703.00;;;18.30
25514;BMP180;48128;54.242;10.280;2022-08-19T02:54:18;100705.00;;;18.30
25514;BMP180;48128;54.242;10.280;2022-08-19T02:56:46;100707.00;;;18.30
25514;BMP180;48128;54.242;10.280;2022-08-19T02:59:13;100712.00;;;18.30
25514;BMP180;48128;54.242;10.280;2022-08-19T03:01:41;100711.00;;;18.30
25514;BMP180;48128;54.242;10.280;2022-08-19T03:04:10;100719.00;;;18.30
25514;BMP180;48128;54.242;10.280;2022-08-19T03:06:39;100719.00;;;18.30
25514;BMP180;48128;54.242;10.280;2022-08-19T03:09:06;100714.00;;;18.30
25514;BMP180;48128;54.242;10.280;2022-08-19T03:11:33;100723.00;;;18.30
25514;BMP180;48128;54.242;10.280;2022-08-19T03:14:01;100724.00;;;18.40
25514;BMP180;48128;54.242;10.280;2022-08-19T03:16:30;100722.00;;;18.40
25514;BMP180;48128;54.242;10.280;2022-08-19T03:18:59;100716.00;;;18.40
25514;BMP180;48128;54.242;10.280;2022-08-19T03:21:31;100717.00;;;18.30
25514;BMP180;48128;54.242;10.280;2022-08-19T03:24:03;100718.00;;;18.30
25514;BMP180;48128;54.242;10.280;2022-08-19T03:26:31;100715.00;;;18.40
25514;BMP180;48128;54.242;10.280;2022-08-19T03:29:01;100723.00;;;18.30
25514;BMP180;48128;54.242;10.280;2022-08-19T03:31:31;100725.00;;;18.30
25514;BMP180;48128;54.242;10.280;2022-08-19T03:34:20;100725.00;;;18.30
25514;BMP180;48128;54.242;10.280;2022-08-19T03:36:47;100725.00;;;18.30
25514;BMP180;48128;54.242;10.280;2022-08-19T03:39:15;100726.00;;;18.30
25514;BMP180;48128;54.242;10.280;2022-08-19T03:41:43;100732.00;;;18.30
25514;BMP180;48128;54.242;10.280;2022-08-19T03:44:15;100738.00;;;18.30
25514;BMP180;48128;54.242;10.280;2022-08-19T03:46:47;100745.00;;;18.30
25514;BMP180;48128;54.242;10.280;2022-08-19T03:49:14;100755.00;;;18.30
25514;BMP180;48128;54.242;10.280;2022-08-19T03:51:44;100753.00;;;18.30
25514;BMP180;48128;54.242;10.280;2022-08-19T03:54:13;100752.00;;;18.30
25514;BMP180;48128;54.242;10.280;2022-08-19T03:56:41;100753.00;;;18.40
25514;BMP180;48128;54.242;10.280;2022-08-19T03:59:10;100761.00;;;18.40
25514;BMP180;48128;54.242;10.280;2022-08-19T04:01:40;100765.00;;;18.40
25514;BMP180;48128;54.242;10.280;2022-08-19T04:04:07;100765.00;;;18.30
25514;BMP180;48128;54.242;10.280;2022-08-19T04:06:36;100766.00;;;18.40
25514;BMP180;48128;54.242;10.280;2022-08-19T04:09:08;100759.00;;;18.30
25514;BMP180;48128;54.242;10.280;2022-08-19T04:11:45;100769.00;;;18.40
25514;BMP180;48128;54.242;10.280;2022-08-19T04:14:16;100766.00;;;18.40
25514;BMP180;48128;54.242;10.280;2022-08-19T04:16:43;100775.00;;;18.40
25514;BMP180;48128;54.242;10.280;2022-08-19T04:19:11;100783.00;;;18.40
25514;BMP180;48128;54.242;10.280;2022-08-19T04:21:38;100784.00;;;18.40
25514;BMP180;48128;54.242;10.280;2022-08-19T04:24:06;100795.00;;;18.40
25514;BMP180;48128;54.242;10.280;2022-08-19T04:26:35;100796.00;;;18.40
25514;BMP180;48128;54.242;10.280;2022-08-19T04:29:06;100796.00;;;18.40
25514;BMP180;48128;54.242;10.280;2022-08-19T04:31:39;100792.00;;;18.40
25514;BMP180;48128;54.242;10.280;2022-08-19T04:34:08;100795.00;;;18.40
25514;BMP180;48128;54.242;10.280;2022-08-19T04:36:38;100796.00;;;18.40
25514;BMP180;48128;54.242;10.280;2022-08-19T04:39:09;100796.00;;;18.40
25514;BMP180;48128;54.242;10.280;2022-08-19T04:41:37;100795.00;;;18.50
25514;BMP180;48128;54.242;10.280;2022-08-19T04:44:22;100792.00;;;18.50
25514;BMP180;48128;54.242;10.280;2022-08-19T04:46:49;100797.00;;;18.50
25514;BMP180;48128;54.242;10.280;2022-08-19T04:49:21;100792.00;;;18.50
25514;BMP180;48128;54.242;10.280;2022-08-19T04:51:50;100788.00;;;18.50
25514;BMP180;48128;54.242;10.280;2022-08-19T04:54:18;100799.00;;;18.50
25514;BMP180;48128;54.242;10.280;2022-08-19T04:57:07;100797.00;;;18.60
25514;BMP180;48128;54.242;10.280;2022-08-19T04:59:37;100803.00;;;18.60
25514;BMP180;48128;54.242;10.280;2022-08-19T05:02:07;100797.00;;;18.60
25514;BMP180;48128;54.242;10.280;2022-08-19T05:04:35;100798.00;;;18.60
25514;BMP180;48128;54.242;10.280;2022-08-19T05:07:07;100791.00;;;18.60
25514;BMP180;48128;54.242;10.280;2022-08-19T05:09:34;100790.00;;;18.60
25514;BMP180;48128;54.242;10.280;2022-08-19T05:12:21;100795.00;;;18.60
25514;BMP180;48128;54.242;10.280;2022-08-19T05:14:55;100800.00;;;18.60
25514;BMP180;48128;54.242;10.280;2022-08-19T05:17:25;100794.00;;;18.70
25514;BMP180;48128;54.242;10.280;2022-08-19T05:19:54;100796.00;;;18.70
25514;BMP180;48128;54.242;10.280;2022-08-19T05:22:42;100803.00;;;18.70
25514;BMP180;48128;54.242;10.280;2022-08-19T05:25:13;100809.00;;;18.70
25514;BMP180;48128;54.242;10.280;2022-08-19T05:27:41;100818.00;;;18.80
25514;BMP180;48128;54.242;10.280;2022-08-19T05:30:10;100813.00;;;18.80
25514;BMP180;48128;54.242;10.280;2022-08-19T05:32:38;100818.00;;;18.80
25514;BMP180;48128;54.242;10.280;2022-08-19T05:35:06;100819.00;;;18.80
25514;BMP180;48128;54.242;10.280;2022-08-19T05:37:33;100821.00;;;18.80
25514;BMP180;48128;54.242;10.280;2022-08-19T05:40:00;100810.00;;;18.80
25514;BMP180;48128;54.242;10.280;2022-08-19T05:42:27;100822.00;;;18.80
25514;BMP180;48128;54.242;10.280;2022-08-19T05:44:53;100827.00;;;18.80
25514;BMP180;48128;54.242;10.280;2022-08-19T05:47:20;100826.00;;;18.80
25514;BMP180;48128;54.242;10.280;2022-08-19T05:49:48;100830.00;;;18.80
25514;BMP180;48128;54.242;10.280;2022-08-19T05:52:17;100821.00;;;18.80
25514;BMP180;48128;54.242;10.280;2022-08-19T05:54:45;100824.00;;;18.80
25514;BMP180;48128;54.242;10.280;2022-08-19T05:57:18;100822.00;;;18.80
25514;BMP180;48128;54.242;10.280;2022-08-19T05:59:45;100824.00;;;18.80
25514;BMP180;48128;54.242;10.280;2022-08-19T06:02:18;100827.00;;;18.90
25514;BMP180;48128;54.242;10.280;2022-08-19T06:04:45;100820.00;;;18.90
25514;BMP180;48128;54.242;10.280;2022-08-19T06:07:12;100826.00;;;18.90
25514;BMP180;48128;54.242;10.280;2022-08-19T06:09:40;100819.00;;;18.90
25514;BMP180;48128;54.242;10.280;2022-08-19T06:12:29;100823.00;;;18.90
25514;BMP180;48128;54.242;10.280;2022-08-19T06:15:00;100824.00;;;19.00
25514;BMP180;48128;54.242;10.280;2022-08-19T06:17:28;100819.00;;;19.00
25514;BMP180;48128;54.242;10.280;2022-08-19T06:19:57;100813.00;;;19.00
25514;BMP180;48128;54.242;10.280;2022-08-19T06:22:25;100815.00;;;19.10
25514;BMP180;48128;54.242;10.280;2022-08-19T06:24:53;100809.00;;;19.20
25514;BMP180;48128;54.242;10.280;2022-08-19T06:27:21;100807.00;;;19.20
25514;BMP180;48128;54.242;10.280;2022-08-19T06:29:48;100809.00;;;19.30
25514;BMP180;48128;54.242;10.280;2022-08-19T06:32:16;100818.00;;;19.40
25514;BMP180;48128;54.242;10.280;2022-08-19T06:34:44;100818.00;;;19.50
25514;BMP180;48128;54.242;10.280;2022-08-19T06:37:11;100812.00;;;19.50
25514;BMP180;48128;54.242;10.280;2022-08-19T06:39:43;100816.00;;;19.60
25514;BMP180;48128;54.242;10.280;2022-08-19T06:42:11;100817.00;;;19.60
25514;BMP180;48128;54.242;10.280;2022-08-19T06:44:41;100820.00;;;19.60
25514;BMP180;48128;54.242;10.280;2022-08-19T06:47:19;100819.00;;;19.60
25514;BMP180;48128;54.242;10.280;2022-08-19T06:49:55;100821.00;;;19.60
25514;BMP180;48128;54.242;10.280;2022-08-19T06:52:43;100817.00;;;19.60
25514;BMP180;48128;54.242;10.280;2022-08-19T06:55:14;100825.00;;;19.50
25514;BMP180;48128;54.242;10.280;2022-08-19T06:57:45;100817.00;;;19.50
25514;BMP180;48128;54.242;10.280;2022-08-19T07:00:13;100823.00;;;19.60
25514;BMP180;48128;54.242;10.280;2022-08-19T07:02:42;100817.00;;;19.60
25514;BMP180;48128;54.242;10.280;2022-08-19T07:05:18;100824.00;;;19.70
25514;BMP180;48128;54.242;10.280;2022-08-19T07:07:48;100823.00;;;19.70
25514;BMP180;48128;54.242;10.280;2022-08-19T07:10:17;100844.00;;;19.70
25514;BMP180;48128;54.242;10.280;2022-08-19T07:12:47;100837.00;;;19.70
25514;BMP180;48128;54.242;10.280;2022-08-19T07:15:20;100843.00;;;19.70
25514;BMP180;48128;54.242;10.280;2022-08-19T07:17:50;100839.00;;;19.80
25514;BMP180;48128;54.242;10.280;2022-08-19T07:20:21;100839.00;;;19.80
25514;BMP180;48128;54.242;10.280;2022-08-19T07:22:54;100850.00;;;19.80
25514;BMP180;48128;54.242;10.280;2022-08-19T07:25:24;100852.00;;;19.80
25514;BMP180;48128;54.242;10.280;2022-08-19T07:28:02;100851.00;;;19.80
25514;BMP180;48128;54.242;10.280;2022-08-19T07:30:49;100850.00;;;19.90
25514;BMP180;48128;54.242;10.280;2022-08-19T07:33:18;100848.00;;;19.90
25514;BMP180;48128;54.242;10.280;2022-08-19T07:35:47;100850.00;;;19.90
25514;BMP180;48128;54.242;10.280;2022-08-19T07:38:16;100850.00;;;19.90
25514;BMP180;48128;54.242;10.280;2022-08-19T07:40:44;100848.00;;;20.00
25514;BMP180;48128;54.242;10.280;2022-08-19T07:43:13;100853.00;;;20.00
25514;BMP180;48128;54.242;10.280;2022-08-19T07:45:48;100861.00;;;20.10
25514;BMP180;48128;54.242;10.280;2022-08-19T07:48:15;100856.00;;;20.10
25514;BMP180;48128;54.242;10.280;2022-08-19T07:50:42;100858.00;;;20.20
25514;BMP180;48128;54.242;10.280;2022-08-19T07:53:09;100868.00;;;20.20
25514;BMP180;48128;54.242;10.280;2022-08-19T07:55:38;100858.00;;;20.20
25514;BMP180;48128;54.242;10.280;2022-08-19T07:58:10;100867.00;;;20.30
25514;BMP180;48128;54.242;10.280;2022-08-19T08:00:38;100870.00;;;20.30
25514;BMP180;48128;54.242;10.280;2022-08-19T08:03:08;100876.00;;;20.30
25514;BMP180;48128;54.242;10.280;2022-08-19T08:05:38;100869.00;;;20.30
25514;BMP180;48128;54.242;10.280;2022-08-19T08:08:33;100866.00;;;20.30
25514;BMP180;48128;54.242;10.280;2022-08-19T08:11:19;100864.00;;;20.30
25514;BMP180;48128;54.242;10.280;2022-08-19T08:13:55;100864.00;;;20.30
25514;BMP180;48128;54.242;10.280;2022-08-19T08:16:31;100871.00;;;20.30
25514;BMP180;48128;54.242;10.280;2022-08-19T08:19:00;100877.00;;;20.30
25514;BMP180;48128;54.242;10.280;2022-08-19T08:21:30;100875.00;;;20.20
25514;BMP180;48128;54.242;10.280;2022-08-19T08:23:59;100876.00;;;20.20
25514;BMP180;48128;54.242;10.280;2022-08-19T08:26:31;100864.00;;;20.20
25514;BMP180;48128;54.242;10.280;2022-08-19T08:29:00;100866.00;;;20.20
25514;BMP180;48128;54.242;10.280;2022-08-19T08:31:39;100878.00;;;20.20
25514;BMP180;48128;54.242;10.280;2022-08-19T08:34:07;100886.00;;;20.20
25514;BMP180;48128;54.242;10.280;2022-08-19T08:36:38;100891.00;;;20.10
25514;BMP180;48128;54.242;10.280;2022-08-19T08:39:09;100886.00;;;20.10
25514;BMP180;48128;54.242;10.280;2022-08-19T08:47:15;100891.00;;;20.00
25514;BMP180;48128;54.242;10.280;2022-08-19T08:49:51;100891.00;;;20.00
25514;BMP180;48128;54.242;10.280;2022-08-19T08:52:37;100899.00;;;20.00
25514;BMP180;48128;54.242;10.280;2022-08-19T08:55:37;100904.00;;;19.90
25514;BMP180;48128;54.242;10.280;2022-08-19T08:58:17;100903.00;;;19.90
25514;BMP180;48128;54.242;10.280;2022-08-19T09:01:12;100903.00;;;19.90
25514;BMP180;48128;54.242;10.280;2022-08-19T09:03:44;100896.00;;;19.90
25514;BMP180;48128;54.242;10.280;2022-08-19T09:06:46;100904.00;;;19.90
25514;BMP180;48128;54.242;10.280;2022-08-19T09:09:40;100908.00;;;19.90
25514;BMP180;48128;54.242;10.280;2022-08-19T09:12:14;100902.00;;;19.80
25514;BMP180;48128;54.242;10.280;2022-08-19T09:15:01;100902.00;;;19.90
25514;BMP180;48128;54.242;10.280;2022-08-19T09:17:30;100894.00;;;19.90
25514;BMP180;48128;54.242;10.280;2022-08-19T09:22:36;100897.00;;;19.90
25514;BMP180;48128;54.242;10.280;2022-08-19T09:25:05;100900.00;;;19.90
25514;BMP180;48128;54.242;10.280;2022-08-19T09:27:32;100908.00;;;19.90
25514;BMP180;48128;54.242;10.280;2022-08-19T09:30:21;100901.00;;;19.90
25514;BMP180;48128;54.242;10.280;2022-08-19T09:32:48;100907.00;;;19.90
25514;BMP180;48128;54.242;10.280;2022-08-19T09:35:23;100908.00;;;19.90
25514;BMP180;48128;54.242;10.280;2022-08-19T09:37:51;100906.00;;;19.90
25514;BMP180;48128;54.242;10.280;2022-08-19T09:40:26;100915.00;;;19.90
25514;BMP180;48128;54.242;10.280;2022-08-19T09:43:11;100907.00;;;19.90
25514;BMP180;48128;54.242;10.280;2022-08-19T09:46:03;100917.00;;;20.00
25514;BMP180;48128;54.242;10.280;2022-08-19T09:48:35;100909.00;;;20.00
25514;BMP180;48128;54.242;10.280;2022-08-19T09:51:06;100931.00;;;20.00
25514;BMP180;48128;54.242;10.280;2022-08-19T09:53:38;100934.00;;;20.10
25514;BMP180;48128;54.242;10.280;2022-08-19T09:56:11;100928.00;;;20.10
25514;BMP180;48128;54.242;10.280;2022-08-19T09:58:38;100919.00;;;20.10
25514;BMP180;48128;54.242;10.280;2022-08-19T10:01:06;100929.00;;;20.10
25514;BMP180;48128;54.242;10.280;2022-08-19T10:03:35;100918.00;;;20.10
25514;BMP180;48128;54.242;10.280;2022-08-19T10:06:04;100915.00;;;20.10
25514;BMP180;48128;54.242;10.280;2022-08-19T10:08:40;100920.00;;;20.10
25514;BMP180;48128;54.242;10.280;2022-08-19T10:11:16;100925.00;;;20.10
25514;BMP180;48128;54.242;10.280;2022-08-19T10:14:03;100916.00;;;20.10
25514;BMP180;48128;54.242;10.280;2022-08-19T10:16:32;100907.00;;;20.00
25514;BMP180;48128;54.242;10.280;2022-08-19T10:19:05;100915.00;;;20.00
25514;BMP180;48128;54.242;10.280;2022-08-19T10:21:33;100917.00;;;20.00
25514;BMP180;48128;54.242;10.280;2022-08-19T10:24:03;100910.00;;;20.00
25514;BMP180;48128;54.242;10.280;2022-08-19T10:26:36;100918.00;;;20.00
25514;BMP180;48128;54.242;10.280;2022-08-19T10:29:04;100915.00;;;20.00
25514;BMP180;48128;54.242;10.280;2022-08-19T10:31:34;100913.00;;;20.00
25514;BMP180;48128;54.242;10.280;2022-08-19T10:34:21;100908.00;;;20.00
25514;BMP180;48128;54.242;10.280;2022-08-19T10:36:54;100910.00;;;20.00
25514;BMP180;48128;54.242;10.280;2022-08-19T10:39:26;100917.00;;;19.90
25514;BMP180;48128;54.242;10.280;2022-08-19T10:41:56;100911.00;;;19.90
25514;BMP180;48128;54.242;10.280;2022-08-19T10:44:24;100917.00;;;19.90
25514;BMP180;48128;54.242;10.280;2022-08-19T10:46:58;100909.00;;;19.80
25514;BMP180;48128;54.242;10.280;2022-08-19T10:49:25;100903.00;;;19.90
25514;BMP180;48128;54.242;10.280;2022-08-19T10:51:55;100905.00;;;19.90
25514;BMP180;48128;54.242;10.280;2022-08-19T10:54:51;100919.00;;;19.90
25514;BMP180;48128;54.242;10.280;2022-08-19T10:57:45;100916.00;;;20.00
25514;BMP180;48128;54.242;10.280;2022-08-19T11:00:28;100920.00;;;20.10
25514;BMP180;48128;54.242;10.280;2022-08-19T11:02:55;100924.00;;;20.20
25514;BMP180;48128;54.242;10.280;2022-08-19T11:05:22;100921.00;;;20.20
25514;BMP180;48128;54.242;10.280;2022-08-19T11:07:50;100910.00;;;20.30
25514;BMP180;48128;54.242;10.280;2022-08-19T11:10:23;100917.00;;;20.40
25514;BMP180;48128;54.242;10.280;2022-08-19T11:12:50;100917.00;;;20.50
25514;BMP180;48128;54.242;10.280;2022-08-19T11:15:21;100920.00;;;20.60
25514;BMP180;48128;54.242;10.280;2022-08-19T11:17:48;100927.00;;;20.70
25514;BMP180;48128;54.242;10.280;2022-08-19T11:20:15;100925.00;;;20.80
25514;BMP180;48128;54.242;10.280;2022-08-19T11:22:42;100927.00;;;20.90
25514;BMP180;48128;54.242;10.280;2022-08-19T11:25:10;100932.00;;;20.90
25514;BMP180;48128;54.242;10.280;2022-08-19T11:27:39;100932.00;;;20.90
25514;BMP180;48128;54.242;10.280;2022-08-19T11:30:09;100924.00;;;20.90
25514;BMP180;48128;54.242;10.280;2022-08-19T11:32:40;100925.00;;;20.90
25514;BMP180;48128;54.242;10.280;2022-08-19T11:35:14;100925.00;;;20.90
25514;BMP180;48128;54.242;10.280;2022-08-19T11:37:41;100919.00;;;20.90
25514;BMP180;48128;54.242;10.280;2022-08-19T11:40:08;100901.00;;;20.90
25514;BMP180;48128;54.242;10.280;2022-08-19T11:42:36;100909.00;;;20.90
25514;BMP180;48128;54.242;10.280;2022-08-19T11:45:23;100916.00;;;20.90
25514;BMP180;48128;54.242;10.280;2022-08-19T11:47:50;100903.00;;;20.90
25514;BMP180;48128;54.242;10.280;2022-08-19T11:50:18;100892.00;;;20.90
25514;BMP180;48128;54.242;10.280;2022-08-19T11:52:45;100895.00;;;20.90
25514;BMP180;48128;54.242;10.280;2022-08-19T11:55:13;100891.00;;;20.90
25514;BMP180;48128;54.242;10.280;2022-08-19T11:57:40;100903.00;;;20.90
25514;BMP180;48128;54.242;10.280;2022-08-19T12:00:10;100900.00;;;20.90
25514;BMP180;48128;54.242;10.280;2022-08-19T12:02:39;100900.00;;;20.90
25514;BMP180;48128;54.242;10.280;2022-08-19T12:05:06;100898.00;;;20.90
25514;BMP180;48128;54.242;10.280;2022-08-19T12:07:38;100913.00;;;20.90
25514;BMP180;48128;54.242;10.280;2022-08-19T12:10:06;100898.00;;;20.80
25514;BMP180;48128;54.242;10.280;2022-08-19T12:12:34;100905.00;;;20.80
25514;BMP180;48128;54.242;10.280;2022-08-19T12:15:01;100908.00;;;20.80
25514;BMP180;48128;54.242;10.280;2022-08-19T12:17:28;100907.00;;;20.80
25514;BMP180;48128;54.242;10.280;2022-08-19T12:19:55;100912.00;;;20.80
25514;BMP180;48128;54.242;10.280;2022-08-19T12:22:22;100906.00;;;20.70
25514;BMP180;48128;54.242;10.280;2022-08-19T12:24:53;100898.00;;;20.70
25514;BMP180;48128;54.242;10.280;2022-08-19T12:27:26;100905.00;;;20.70
25514;BMP180;48128;54.242;10.280;2022-08-19T12:30:09;100902.00;;;20.70
25514;BMP180;48128;54.242;10.280;2022-08-19T12:32:38;100910.00;;;20.70
25514;BMP180;48128;54.242;10.280;2022-08-19T12:35:06;100912.00;;;20.60
25514;BMP180;48128;54.242;10.280;2022-08-19T12:37:34;100915.00;;;20.60
25514;BMP180;48128;54.242;10.280;2022-08-19T12:40:01;100907.00;;;20.50
25514;BMP180;48128;54.242;10.280;2022-08-19T12:42:29;100902.00;;;20.50
25514;BMP180;48128;54.242;10.280;2022-08-19T12:44:57;100908.00;;;20.50
25514;BMP180;48128;54.242;10.280;2022-08-19T12:47:31;100915.00;;;20.50
25514;BMP180;48128;54.242;10.280;2022-08-19T12:49:58;100910.00;;;20.50
25514;BMP180;48128;54.242;10.280;2022-08-19T12:52:28;100905.00;;;20.50
25514;BMP180;48128;54.242;10.280;2022-08-19T12:55:05;100905.00;;;20.60
25514;BMP180;48128;54.242;10.280;2022-08-19T12:57:33;100917.00;;;20.60
25514;BMP180;48128;54.242;10.280;2022-08-19T13:00:11;100913.00;;;20.60
25514;BMP180;48128;54.242;10.280;2022-08-19T13:02:42;100911.00;;;20.60
25514;BMP180;48128;54.242;10.280;2022-08-19T13:05:13;100900.00;;;20.50
25514;BMP180;48128;54.242;10.280;2022-08-19T13:07:41;100902.00;;;20.50
25514;BMP180;48128;54.242;10.280;2022-08-19T13:10:12;100891.00;;;20.50
25514;BMP180;48128;54.242;10.280;2022-08-19T13:12:39;100899.00;;;20.50
25514;BMP180;48128;54.242;10.280;2022-08-19T13:15:08;100900.00;;;20.50
25514;BMP180;48128;54.242;10.280;2022-08-19T13:17:38;100902.00;;;20.60
25514;BMP180;48128;54.242;10.280;2022-08-19T13:20:07;100895.00;;;20.60
25514;BMP180;48128;54.242;10.280;2022-08-19T13:22:35;100901.00;;;20.70
25514;BMP180;48128;54.242;10.280;2022-08-19T13:25:03;100901.00;;;20.70
25514;BMP180;48128;54.242;10.280;2022-08-19T13:27:31;100903.00;;;20.70
25514;BMP180;48128;54.242;10.280;2022-08-19T13:29:59;100903.00;;;20.70
25514;BMP180;48128;54.242;10.280;2022-08-19T13:32:44;100897.00;;;20.70
25514;BMP180;48128;54.242;10.280;2022-08-19T13:35:30;100896.00;;;20.70
25514;BMP180;48128;54.242;10.280;2022-08-19T13:37:57;100900.00;;;20.70
25514;BMP180;48128;54.242;10.280;2022-08-19T13:40:24;100902.00;;;20.80
25514;BMP180;48128;54.242;10.280;2022-08-19T13:42:54;100897.00;;;20.80
25514;BMP180;48128;54.242;10.280;2022-08-19T13:45:23;100892.00;;;20.90
25514;BMP180;48128;54.242;10.280;2022-08-19T13:47:52;100904.00;;;21.00
25514;BMP180;48128;54.242;10.280;2022-08-19T13:50:29;100906.00;;;21.00
25514;BMP180;48128;54.242;10.280;2022-08-19T13:52:58;100903.00;;;21.10
25514;BMP180;48128;54.242;10.280;2022-08-19T13:55:26;100915.00;;;21.10
25514;BMP180;48128;54.242;10.280;2022-08-19T13:57:58;100908.00;;;21.10
25514;BMP180;48128;54.242;10.280;2022-08-19T14:00:26;100911.00;;;21.10
25514;BMP180;48128;54.242;10.280;2022-08-19T14:02:54;100916.00;;;21.10
25514;BMP180;48128;54.242;10.280;2022-08-19T14:05:25;100907.00;;;21.00
25514;BMP180;48128;54.242;10.280;2022-08-19T14:07:53;100909.00;;;21.00
25514;BMP180;48128;54.242;10.280;2022-08-19T14:10:21;100902.00;;;20.90
25514;BMP180;48128;54.242;10.280;2022-08-19T14:12:58;100890.00;;;20.90
25514;BMP180;48128;54.242;10.280;2022-08-19T14:15:42;100882.00;;;20.80